createdAt,value
2022-08-18T00:01:38.114Z,100
2022-08-18T00:04:04.218Z,100
2022-08-18T00:06:29.327Z,100
2022-08-18T00:08:54.435Z,100
2022-08-18T00:11:19.551Z,100
2022-08-18T00:13:44.667Z,100
2022-08-18T00:16:10.765Z,100
2022-08-18T00:18:36.860Z,100
2022-08-18T00:21:02.964Z,100
2022-08-18T00:23:29.057Z,100
2022-08-18T00:25:55.133Z,100
2022-08-18T00:28:21.233Z,100
2022-08-18T00:30:47.334Z,100
2022-08-18T00:33:13.437Z,100
2022-08-18T00:35:39.526Z,100
2022-08-18T00:38:05.631Z,100
2022-08-18T00:40:31.709Z,100
2022-08-18T00:42:57.810Z,100
2022-08-18T00:45:23.919Z,100
2022-08-18T00:47:49.016Z,100
2022-08-18T00:50:15.115Z,100
2022-08-18T00:52:41.210Z,100
2022-08-18T00:55:07.312Z,100
2022-08-18T00:57:33.403Z,100
2022-08-18T00:59:59.497Z,100
2022-08-18T01:02:24.620Z,100
2022-08-18T01:04:49.730Z,100
2022-08-18T01:07:15.810Z,100
2022-08-18T01:09:40.937Z,100
2022-08-18T01:12:06.052Z,100
2022-08-18T01:14:32.141Z,100
2022-08-18T01:16:58.249Z,100
2022-08-18T01:19:24.326Z,100
2022-08-18T01:21:50.430Z,100
2022-08-18T01:24:16.551Z,100
2022-08-18T01:26:42.613Z,100
2022-08-18T01:29:08.713Z,100
2022-08-18T01:31:34.814Z,100
2022-08-18T01:34:00.903Z,100
2022-08-18T01:36:27.003Z,100
2022-08-18T01:38:53.095Z,100
2022-08-18T01:41:19.189Z,100
2022-08-18T01:43:44.302Z,100
2022-08-18T01:46:10.393Z,100
2022-08-18T01:48:36.492Z,100
2022-08-18T01:51:02.616Z,100
2022-08-18T01:53:28.688Z,100
2022-08-18T01:55:54.775Z,100
2022-08-18T01:58:20.866Z,100
2022-08-18T02:00:45.988Z,100
2022-08-18T02:03:11.113Z,100
2022-08-18T02:05:36.224Z,100
2022-08-18T02:08:01.346Z,100
2022-08-18T02:10:27.419Z,100
2022-08-18T02:12:53.526Z,100
2022-08-18T02:15:19.623Z,100
2022-08-18T02:17:45.727Z,100
2022-08-18T02:20:11.830Z,100
2022-08-18T02:22:37.907Z,100
2022-08-18T02:25:04.007Z,100
2022-08-18T02:27:30.114Z,100
2022-08-18T02:29:56.196Z,100
2022-08-18T02:32:22.281Z,100
2022-08-18T02:34:48.386Z,100
2022-08-18T02:37:14.478Z,100
2022-08-18T02:39:39.588Z,100
2022-08-18T02:42:05.679Z,100
2022-08-18T02:44:31.772Z,100
2022-08-18T02:46:57.867Z,100
2022-08-18T02:49:23.957Z,100
2022-08-18T02:51:50.055Z,100
2022-08-18T02:54:16.162Z,100
2022-08-18T02:56:41.277Z,100
2022-08-18T02:59:06.395Z,100
2022-08-18T03:01:32.479Z,100
2022-08-18T03:03:58.584Z,100
2022-08-18T03:06:23.696Z,100
2022-08-18T03:08:48.802Z,100
2022-08-18T03:11:14.899Z,100
2022-08-18T03:13:41.057Z,100
2022-08-18T03:16:07.098Z,100
2022-08-18T03:18:33.191Z,100
2022-08-18T03:20:59.273Z,100
2022-08-18T03:23:25.377Z,100
2022-08-18T03:25:51.471Z,100
2022-08-18T03:28:17.565Z,100
2022-08-18T03:30:43.666Z,100
2022-08-18T03:33:09.752Z,100
2022-08-18T03:35:35.850Z,100
2022-08-18T03:38:01.937Z,100
2022-08-18T03:40:27.055Z,100
2022-08-18T03:42:53.136Z,100
2022-08-18T03:45:19.232Z,100
2022-08-18T03:47:45.340Z,100
2022-08-18T03:50:11.441Z,100
2022-08-18T03:52:37.538Z,100
2022-08-18T03:55:03.628Z,100
2022-08-18T03:57:28.748Z,100
2022-08-18T03:59:53.843Z,100
2022-08-18T04:02:18.983Z,100
2022-08-18T04:04:44.093Z,100
2022-08-18T04:07:10.183Z,100
2022-08-18T04:09:36.274Z,100
2022-08-18T04:12:02.375Z,100
2022-08-18T04:14:28.470Z,100
2022-08-18T04:16:54.569Z,100
2022-08-18T04:19:20.665Z,100
2022-08-18T04:21:46.743Z,100
2022-08-18T04:24:12.839Z,100
2022-08-18T04:26:38.939Z,100
2022-08-18T04:29:05.043Z,100
2022-08-18T04:31:31.133Z,100
2022-08-18T04:33:57.223Z,100
2022-08-18T04:36:22.348Z,100
2022-08-18T04:38:48.423Z,100
2022-08-18T04:41:14.538Z,100
2022-08-18T04:43:40.616Z,100
2022-08-18T04:46:06.714Z,100
2022-08-18T04:48:32.815Z,100
2022-08-18T04:50:58.917Z,100
2022-08-18T04:53:24.026Z,100
2022-08-18T04:55:49.133Z,100
2022-08-18T04:58:14.257Z,100
2022-08-18T05:00:39.388Z,100
2022-08-18T05:03:05.461Z,100
2022-08-18T05:05:31.559Z,100
2022-08-18T05:07:57.663Z,100
2022-08-18T05:10:23.761Z,100
2022-08-18T05:12:49.852Z,100
2022-08-18T05:15:15.939Z,100
2022-08-18T05:17:42.031Z,100
2022-08-18T05:20:08.126Z,100
2022-08-18T05:22:34.222Z,100
2022-08-18T05:25:00.326Z,100
2022-08-18T05:27:26.423Z,100
2022-08-18T05:29:52.505Z,100
2022-08-18T05:32:17.623Z,100
2022-08-18T05:34:43.712Z,100
2022-08-18T05:37:09.804Z,100
2022-08-18T05:39:35.907Z,100
2022-08-18T05:42:02.005Z,100
2022-08-18T05:44:28.088Z,100
2022-08-18T05:46:54.199Z,100
2022-08-18T05:49:19.309Z,100
2022-08-18T05:51:44.421Z,100
2022-08-18T05:54:09.539Z,100
2022-08-18T05:56:35.647Z,100
2022-08-18T05:59:00.753Z,100
2022-08-18T06:01:26.845Z,100
2022-08-18T06:03:52.940Z,100
2022-08-18T06:06:19.048Z,100
2022-08-18T06:08:45.128Z,100
2022-08-18T06:11:11.229Z,100
2022-08-18T06:13:37.324Z,100
2022-08-18T06:16:03.415Z,100
2022-08-18T06:18:29.514Z,99.9
2022-08-18T06:20:55.599Z,100
2022-08-18T06:23:21.696Z,99.9
2022-08-18T06:25:47.801Z,98.8
2022-08-18T06:28:13.886Z,98.5
2022-08-18T06:30:38.993Z,97.4
2022-08-18T06:33:05.087Z,96.8
2022-08-18T06:35:31.186Z,96.3
2022-08-18T06:37:57.286Z,95.8
2022-08-18T06:40:23.380Z,96
2022-08-18T06:42:49.478Z,95.7
2022-08-18T06:45:14.599Z,94.8
2022-08-18T06:47:39.723Z,93.8
2022-08-18T06:50:04.835Z,93.5
2022-08-18T06:52:29.944Z,94.1
2022-08-18T06:54:56.043Z,94.5
2022-08-18T06:57:22.141Z,94.3
2022-08-18T06:59:48.236Z,94.1
2022-08-18T07:02:14.342Z,93
2022-08-18T07:04:40.428Z,93.7
2022-08-18T07:07:06.523Z,93.9
2022-08-18T07:09:32.636Z,93.3
2022-08-18T07:11:58.715Z,94.6
2022-08-18T07:14:24.806Z,93.8
2022-08-18T07:16:50.907Z,92.9
2022-08-18T07:19:17.007Z,93.1
2022-08-18T07:21:43.109Z,92.3
2022-08-18T07:24:08.206Z,92.7
2022-08-18T07:26:34.302Z,93
2022-08-18T07:29:00.408Z,90.7
2022-08-18T07:31:26.502Z,91.3
2022-08-18T07:33:52.596Z,90.4
2022-08-18T07:36:18.687Z,88.8
2022-08-18T07:38:44.776Z,89.3
2022-08-18T07:41:09.902Z,87.5
2022-08-18T07:43:35.023Z,88.4
2022-08-18T07:46:01.116Z,89.6
2022-08-18T07:48:27.211Z,89.7
2022-08-18T07:50:53.297Z,88.6
2022-08-18T07:53:19.399Z,90.9
2022-08-18T07:55:45.484Z,91.7
2022-08-18T07:58:11.589Z,93.6
2022-08-18T08:00:37.685Z,94
2022-08-18T08:03:03.794Z,94.6
2022-08-18T08:05:29.874Z,96
2022-08-18T08:07:55.966Z,96.1
2022-08-18T08:10:22.059Z,97
2022-08-18T08:12:48.186Z,97.5
2022-08-18T08:15:13.278Z,97.6
2022-08-18T08:17:39.373Z,97.8
2022-08-18T08:20:05.465Z,97.8
2022-08-18T08:22:31.565Z,98.3
2022-08-18T08:24:57.658Z,98.4
2022-08-18T08:27:23.768Z,97.8
2022-08-18T08:29:49.847Z,98.2
2022-08-18T08:32:14.974Z,97.8
2022-08-18T08:34:40.119Z,97.5
2022-08-18T08:37:05.223Z,96.6
2022-08-18T08:39:30.325Z,96.1
2022-08-18T08:41:56.427Z,95.5
2022-08-18T08:44:22.512Z,95
2022-08-18T08:46:48.609Z,93.8
2022-08-18T08:49:14.695Z,94
2022-08-18T08:51:40.790Z,94.1
2022-08-18T08:54:06.906Z,94.4
2022-08-18T08:56:33.036Z,95
2022-08-18T08:58:59.081Z,95.3
2022-08-18T09:01:25.178Z,95.4
2022-08-18T09:03:51.276Z,96.1
2022-08-18T09:06:17.362Z,94.8
2022-08-18T09:08:43.459Z,94.9
2022-08-18T09:11:08.581Z,94.4
2022-08-18T09:13:34.675Z,92.4
2022-08-18T09:16:00.763Z,90.7
2022-08-18T09:18:26.856Z,91.3
2022-08-18T09:20:52.952Z,89.4
2022-08-18T09:23:19.043Z,89.7
2022-08-18T09:25:45.134Z,88.9
2022-08-18T09:28:10.255Z,88.7
2022-08-18T09:30:35.371Z,87.4
2022-08-18T09:33:00.523Z,86.4
2022-08-18T09:35:25.613Z,85.5
2022-08-18T09:37:51.702Z,85.8
2022-08-18T09:40:17.799Z,85.5
2022-08-18T09:42:43.890Z,82.8
2022-08-18T09:45:09.979Z,82
2022-08-18T09:47:36.114Z,83.1
2022-08-18T09:50:02.181Z,81.9
2022-08-18T09:52:28.277Z,82.3
2022-08-18T09:54:54.372Z,82.8
2022-08-18T09:57:20.458Z,81.5
2022-08-18T09:59:46.554Z,81.8
2022-08-18T10:02:12.650Z,83.8
2022-08-18T10:04:38.741Z,82
2022-08-18T10:07:03.877Z,83.2
2022-08-18T10:09:29.941Z,84
2022-08-18T10:11:56.055Z,83.6
2022-08-18T10:14:22.156Z,82.5
2022-08-18T10:16:48.228Z,83.3
2022-08-18T10:19:14.333Z,81.2
2022-08-18T10:21:40.474Z,83
2022-08-18T10:24:05.589Z,82.3
2022-08-18T10:26:30.647Z,83.8
2022-08-18T10:28:56.758Z,82.7
2022-08-18T10:31:22.856Z,80.8
2022-08-18T10:33:48.975Z,81
2022-08-18T10:36:15.040Z,80.2
2022-08-18T10:38:41.130Z,78.4
2022-08-18T10:41:07.240Z,77.5
2022-08-18T10:43:33.354Z,77.9
2022-08-18T10:45:59.435Z,77.8
2022-08-18T10:48:25.518Z,77.4
2022-08-18T10:50:51.638Z,77.7
2022-08-18T10:53:17.706Z,77.1
2022-08-18T10:55:43.795Z,75.9
2022-08-18T10:58:08.952Z,75.7
2022-08-18T11:00:35.013Z,76.3
2022-08-18T11:03:01.132Z,77.7
2022-08-18T11:05:27.207Z,74.4
2022-08-18T11:07:53.290Z,75.2
2022-08-18T11:10:19.391Z,73.6
2022-08-18T11:12:45.508Z,72.6
2022-08-18T11:15:11.597Z,73.4
2022-08-18T11:17:36.753Z,72.7
2022-08-18T11:20:01.855Z,72.8
2022-08-18T11:22:26.971Z,72.8
2022-08-18T11:24:52.065Z,70.7
2022-08-18T11:27:18.149Z,69.5
2022-08-18T11:29:44.282Z,69.8
2022-08-18T11:32:10.358Z,68.8
2022-08-18T11:34:36.452Z,67.9
2022-08-18T11:37:02.549Z,67.7
2022-08-18T11:39:28.624Z,68.2
2022-08-18T11:41:54.751Z,67.8
2022-08-18T11:44:20.842Z,67.3
2022-08-18T11:46:46.943Z,68.2
2022-08-18T11:49:13.016Z,68
2022-08-18T11:51:39.127Z,69.5
2022-08-18T11:54:05.202Z,69.8
2022-08-18T11:56:30.294Z,71.2
2022-08-18T11:58:56.398Z,70.1
2022-08-18T12:01:22.518Z,68.9
2022-08-18T12:03:48.579Z,67.8
2022-08-18T12:06:14.705Z,67.9
2022-08-18T12:08:40.813Z,68.6
2022-08-18T12:11:06.936Z,66.7
2022-08-18T12:13:32.962Z,65.4
2022-08-18T12:15:58.111Z,65.5
2022-08-18T12:18:23.202Z,64.9
2022-08-18T12:20:49.282Z,66
2022-08-18T12:23:15.395Z,64.9
2022-08-18T12:25:41.489Z,65
2022-08-18T12:28:07.573Z,63.6
2022-08-18T12:30:33.702Z,62.8
2022-08-18T12:32:59.761Z,63.5
2022-08-18T12:35:25.870Z,63.4
2022-08-18T12:37:51.993Z,65.3
2022-08-18T12:40:18.085Z,64.5
2022-08-18T12:42:44.187Z,63.9
2022-08-18T12:45:10.261Z,64.5
2022-08-18T12:47:36.374Z,62.6
2022-08-18T12:50:01.470Z,62.5
2022-08-18T12:52:27.568Z,61.8
2022-08-18T12:54:53.652Z,60.8
2022-08-18T12:57:19.759Z,60.9
2022-08-18T12:59:45.876Z,61.7
2022-08-18T13:02:11.942Z,62.1
2022-08-18T13:04:38.038Z,62.3
2022-08-18T13:07:03.170Z,61.3
2022-08-18T13:09:28.256Z,61.5
2022-08-18T13:11:53.415Z,61
2022-08-18T13:14:18.533Z,59
2022-08-18T13:16:43.648Z,58.8
2022-08-18T13:19:08.724Z,59.7
2022-08-18T13:21:33.887Z,60.7
2022-08-18T13:23:58.978Z,61.7
2022-08-18T13:26:25.124Z,62.9
2022-08-18T13:28:51.169Z,61.8
2022-08-18T13:31:17.291Z,62.1
2022-08-18T13:33:43.348Z,62.6
2022-08-18T13:36:09.465Z,61.9
2022-08-18T13:38:35.548Z,63
2022-08-18T13:41:01.676Z,64.2
2022-08-18T13:43:27.718Z,63.1
2022-08-18T13:45:53.891Z,63.3
2022-08-18T13:48:19.973Z,62.6
2022-08-18T13:53:12.111Z,57.8
2022-08-18T13:55:37.242Z,57.8
2022-08-18T13:58:03.328Z,56.4
2022-08-18T14:00:29.424Z,54.9
2022-08-18T14:02:55.504Z,55
2022-08-18T14:05:21.626Z,54.4
2022-08-18T14:07:47.711Z,55.5
2022-08-18T14:10:13.819Z,52.8
2022-08-18T14:12:39.891Z,51.3
2022-08-18T14:15:05.011Z,52.6
2022-08-18T14:17:30.164Z,53.4
2022-08-18T14:19:55.254Z,54.4
2022-08-18T14:22:20.375Z,54.8
2022-08-18T14:24:46.462Z,54.8
2022-08-18T14:27:12.601Z,54.9
2022-08-18T14:29:38.652Z,59
2022-08-18T14:32:04.755Z,59.1
2022-08-18T14:34:30.848Z,59.3
2022-08-18T14:36:56.955Z,59
2022-08-18T14:39:23.028Z,59
2022-08-18T14:41:49.143Z,59.6
2022-08-18T14:44:15.250Z,58.5
2022-08-18T14:46:41.289Z,60.2
2022-08-18T14:49:07.403Z,60.2
2022-08-18T14:51:33.540Z,61.5
2022-08-18T14:53:58.627Z,60.4
2022-08-18T14:56:24.707Z,61.4
2022-08-18T14:58:49.797Z,62
2022-08-18T15:01:15.933Z,62.6
2022-08-18T15:03:42.021Z,62
2022-08-18T15:06:08.093Z,63.4
2022-08-18T15:08:34.217Z,62.8
2022-08-18T15:10:59.351Z,62.1
2022-08-18T15:13:24.433Z,62.2
2022-08-18T15:15:49.539Z,61.7
2022-08-18T15:18:14.667Z,60.7
2022-08-18T15:20:40.772Z,62.3
2022-08-18T15:23:06.879Z,61.4
2022-08-18T15:25:32.982Z,60.5
2022-08-18T15:27:59.073Z,62.4
2022-08-18T15:30:25.195Z,62
2022-08-18T15:32:51.269Z,60.7
2022-08-18T15:35:17.336Z,60.8
2022-08-18T15:37:43.430Z,62.8
2022-08-18T15:40:09.543Z,61.3
2022-08-18T15:42:35.651Z,64.1
2022-08-18T15:45:01.707Z,61.4
2022-08-18T15:47:27.821Z,60.9
2022-08-18T15:49:52.930Z,62.1
2022-08-18T15:52:19.031Z,63.1
2022-08-18T15:54:45.108Z,60.8
2022-08-18T15:57:11.208Z,61.3
2022-08-18T15:59:37.318Z,61.8
2022-08-18T16:02:03.426Z,60.7
2022-08-18T16:04:29.511Z,61.1
2022-08-18T16:06:54.610Z,60.4
2022-08-18T16:09:19.725Z,59.3
2022-08-18T16:11:45.825Z,60
2022-08-18T16:14:11.918Z,60.3
2022-08-18T16:16:38.027Z,60
2022-08-18T16:19:04.098Z,60.7
2022-08-18T16:21:30.209Z,60.7
2022-08-18T16:23:56.309Z,61.5
2022-08-18T16:26:22.386Z,60.7
2022-08-18T16:28:48.508Z,60.9
2022-08-18T16:31:14.594Z,61.7
2022-08-18T16:33:40.703Z,62
2022-08-18T16:36:06.778Z,61.8
2022-08-18T16:38:32.874Z,60.9
2022-08-18T16:40:57.988Z,61
2022-08-18T16:43:24.090Z,61.2
2022-08-18T16:45:50.185Z,61.2
2022-08-18T16:48:16.292Z,60.9
2022-08-18T16:50:42.365Z,61.3
2022-08-18T16:53:08.453Z,61.6
2022-08-18T16:55:34.566Z,61.6
2022-08-18T16:57:59.695Z,61.6
2022-08-18T17:00:24.810Z,62
2022-08-18T17:02:49.934Z,61.5
2022-08-18T17:05:15.036Z,62.1
2022-08-18T17:07:40.166Z,62
2022-08-18T17:10:05.263Z,63.2
2022-08-18T17:12:31.367Z,63.3
2022-08-18T17:14:57.471Z,62.8
2022-08-18T17:17:23.551Z,62.7
2022-08-18T17:19:49.651Z,63.1
2022-08-18T17:22:15.755Z,63.3
2022-08-18T17:24:41.858Z,63.1
2022-08-18T17:27:07.935Z,63
2022-08-18T17:29:34.038Z,63.4
2022-08-18T17:32:00.133Z,63.2
2022-08-18T17:34:26.234Z,63.4
2022-08-18T17:36:52.324Z,63.5
2022-08-18T17:39:18.418Z,63.2
2022-08-18T17:41:43.536Z,63.8
2022-08-18T17:44:09.625Z,64.2
2022-08-18T17:46:35.712Z,64.4
2022-08-18T17:49:01.824Z,65.3
2022-08-18T17:51:27.901Z,66.3
2022-08-18T17:53:54.007Z,67
2022-08-18T17:56:20.116Z,67.5
2022-08-18T17:58:45.236Z,67.7
2022-08-18T18:01:10.332Z,68.2
2022-08-18T18:03:35.452Z,68.3
2022-08-18T18:06:00.577Z,68.7
2022-08-18T18:08:26.671Z,69.2
2022-08-18T18:10:52.781Z,69.4
2022-08-18T18:13:18.857Z,70.1
2022-08-18T18:15:44.955Z,70.5
2022-08-18T18:18:11.034Z,70.8
2022-08-18T18:20:37.394Z,71.1
2022-08-18T18:23:03.258Z,71.3
2022-08-18T18:25:29.329Z,71.6
2022-08-18T18:27:55.431Z,71.9
2022-08-18T18:30:21.533Z,71.9
2022-08-18T18:32:47.627Z,72
2022-08-18T18:35:13.705Z,72.4
2022-08-18T18:37:38.828Z,72.5
2022-08-18T18:40:04.919Z,72.7
2022-08-18T18:42:31.011Z,72.9
2022-08-18T18:44:57.100Z,72.9
2022-08-18T18:47:23.196Z,72.7
2022-08-18T18:49:49.304Z,72.5
2022-08-18T18:54:41.487Z,72.3
2022-08-18T18:57:06.613Z,72.6
2022-08-18T18:59:31.723Z,72.6
2022-08-18T19:01:56.851Z,72.4
2022-08-18T19:04:21.959Z,72.1
2022-08-18T19:06:47.072Z,72.4
2022-08-18T19:09:12.201Z,72
2022-08-18T19:11:38.275Z,72
2022-08-18T19:14:04.377Z,72.2
2022-08-18T19:16:30.472Z,72.2
2022-08-18T19:18:56.555Z,72.1
2022-08-18T19:21:22.664Z,71.5
2022-08-18T19:23:48.764Z,71.5
2022-08-18T19:26:14.860Z,71
2022-08-18T19:28:40.966Z,70.8
2022-08-18T19:31:07.033Z,70.8
2022-08-18T19:33:33.149Z,70.9
2022-08-18T19:35:59.233Z,70.6
2022-08-18T19:38:25.351Z,70.5
2022-08-18T19:40:50.440Z,70.2
2022-08-18T19:43:16.548Z,70.1
2022-08-18T19:45:42.641Z,70.2
2022-08-18T19:48:08.742Z,70.3
2022-08-18T19:50:34.827Z,70.4
2022-08-18T19:53:00.915Z,70.3
2022-08-18T19:55:27.025Z,70.3
2022-08-18T19:57:52.157Z,70.4
2022-08-18T20:00:17.255Z,70.6
2022-08-18T20:05:08.476Z,71.1
2022-08-18T20:07:33.625Z,70.8
2022-08-18T20:09:58.716Z,70.7
2022-08-18T20:12:23.820Z,70.7
2022-08-18T20:14:48.939Z,70.8
2022-08-18T20:17:15.042Z,70.8
2022-08-18T20:19:41.130Z,71.1
2022-08-18T20:22:07.223Z,71
2022-08-18T20:24:33.329Z,71.3
2022-08-18T20:26:59.423Z,71.3
2022-08-18T20:29:25.515Z,71.5
2022-08-18T20:31:51.622Z,71.3
2022-08-18T20:34:17.717Z,71.6
2022-08-18T20:36:43.834Z,71.8
2022-08-18T20:39:09.913Z,72
2022-08-18T20:41:35.998Z,72.2
2022-08-18T20:44:02.098Z,72.7
2022-08-18T20:46:27.208Z,73
2022-08-18T20:48:53.298Z,73.2
2022-08-18T20:51:19.398Z,73.6
2022-08-18T20:53:45.490Z,74.1
2022-08-18T20:56:11.574Z,74.7
2022-08-18T20:58:37.681Z,75.1
2022-08-18T21:01:03.768Z,75.5
2022-08-18T21:03:28.893Z,76
2022-08-18T21:05:53.996Z,76
2022-08-18T21:08:20.094Z,76.4
2022-08-18T21:10:46.196Z,76.4
2022-08-18T21:13:12.306Z,76.6
2022-08-18T21:15:38.391Z,76.6
2022-08-18T21:18:04.509Z,76.6
2022-08-18T21:20:30.583Z,76.8
2022-08-18T21:22:56.673Z,76.9
2022-08-18T21:25:22.777Z,77.1
2022-08-18T21:27:48.860Z,77
2022-08-18T21:30:14.962Z,77.1
2022-08-18T21:32:41.048Z,77.2
2022-08-18T21:35:07.142Z,77.1
2022-08-18T21:37:32.257Z,77.5
2022-08-18T21:39:58.345Z,77.6
2022-08-18T21:42:24.470Z,77.8
2022-08-18T21:44:50.545Z,78.4
2022-08-18T21:47:16.648Z,77.9
2022-08-18T21:49:42.732Z,78
2022-08-18T21:52:08.820Z,77.6
2022-08-18T21:54:33.953Z,78.2
2022-08-18T21:56:59.073Z,78.8
2022-08-18T21:59:24.185Z,78.9
2022-08-18T22:01:49.296Z,79
2022-08-18T22:04:15.394Z,80.8
2022-08-18T22:06:41.487Z,79.9
2022-08-18T22:09:07.601Z,80.1
2022-08-18T22:11:33.678Z,79.8
2022-08-18T22:13:59.765Z,80.6
2022-08-18T22:16:25.851Z,80.9
2022-08-18T22:18:51.957Z,83.1
2022-08-18T22:21:18.048Z,83.6
2022-08-18T22:23:44.144Z,84.3
2022-08-18T22:26:10.251Z,84.5
2022-08-18T22:28:36.338Z,83.3
2022-08-18T22:31:02.439Z,82.3
2022-08-18T22:33:27.548Z,83.5
2022-08-18T22:35:53.636Z,84
2022-08-18T22:38:19.735Z,84.3
2022-08-18T22:40:45.835Z,82.2
2022-08-18T22:43:11.928Z,81.5
2022-08-18T22:45:38.015Z,82.3
2022-08-18T22:48:04.107Z,82.8
2022-08-18T22:50:29.242Z,83.8
2022-08-18T22:52:54.338Z,84.6
2022-08-18T22:55:19.468Z,81.7
2022-08-18T22:57:44.576Z,82.3
2022-08-18T23:00:10.679Z,79.5
2022-08-18T23:02:36.777Z,79.4
2022-08-18T23:05:02.849Z,77.8
2022-08-18T23:07:27.975Z,77.3
2022-08-18T23:09:54.074Z,77
2022-08-18T23:12:20.169Z,76.8
2022-08-18T23:14:46.263Z,76.3
2022-08-18T23:17:12.362Z,76.3
2022-08-18T23:19:38.457Z,76
2022-08-18T23:22:04.544Z,76.3
2022-08-18T23:24:30.642Z,76.2
2022-08-18T23:26:56.726Z,76.2
2022-08-18T23:29:22.828Z,76.3
2022-08-18T23:31:48.922Z,76.7
2022-08-18T23:36:41.118Z,76.5
2022-08-18T23:39:06.225Z,76.8
2022-08-18T23:41:32.324Z,77
2022-08-18T23:43:58.423Z,78
2022-08-18T23:46:24.501Z,79.2
2022-08-18T23:48:49.616Z,77.7
2022-08-18T23:51:14.758Z,77.9
2022-08-18T23:53:39.856Z,78.4
2022-08-18T23:56:04.974Z,78.8
2022-08-18T23:58:30.098Z,78.6
